sensor_id;sensor_type;location;lat;lon;timestamp;pressure;altitude;pressure_sealevel;temperature;humidity
3590;BME280;1809;48.470;9.226;2023-02-18T00:02:20;89304.03;;;11.92;100.00
3590;BME280;1809;48.470;9.226;2023-02-18T00:04:46;89641.22;;;11.88;100.00
3590;BME280;1809;48.470;9.226;2023-02-18T00:07:11;89309.88;;;11.96;100.00
3590;BME280;1809;48.470;9.226;2023-02-18T00:09:37;87590.13;;;11.90;100.00
3590;BME280;1809;48.470;9.226;2023-02-18T00:12:03;86911.69;;;11.94;100.00
3590;BME280;1809;48.470;9.226;2023-02-18T00:14:28;85879.34;;;11.89;100.00
3590;BME280;1809;48.470;9.226;2023-02-18T00:16:53;84512.53;;;11.90;100.00
3590;BME280;1809;48.470;9.226;2023-02-18T00:19:19;84515.31;;;11.92;100.00
3590;BME280;1809;48.470;9.226;2023-02-18T00:21:45;86222.69;;;11.90;100.00
3590;BME280;1809;48.470;9.226;2023-02-18T00:24:13;84183.13;;;11.99;100.00
3590;BME280;1809;48.470;9.226;2023-02-18T00:26:39;83496.84;;;11.97;100.00
3590;BME280;1809;48.470;9.226;2023-02-18T00:29:05;82822.91;;;12.04;100.00
3590;BME280;1809;48.470;9.226;2023-02-18T00:31:33;80090.28;;;12.04;100.00
3590;BME280;1809;48.470;9.226;2023-02-18T00:33:59;78714.47;;;11.96;100.00
3590;BME280;1809;48.470;9.226;2023-02-18T00:36:25;77359.81;;;12.04;100.00
3590;BME280;1809;48.470;9.226;2023-02-18T00:38:54;79060.94;;;12.00;100.00
3590;BME280;1809;48.470;9.226;2023-02-18T00:41:21;81791.22;;;11.99;100.00
3590;BME280;1809;48.470;9.226;2023-02-18T00:43:47;84184.50;;;12.00;100.00
3590;BME280;1809;48.470;9.226;2023-02-18T00:46:13;83841.31;;;11.99;100.00
3590;BME280;1809;48.470;9.226;2023-02-18T00:48:39;84523.59;;;11.98;100.00
3590;BME280;1809;48.470;9.226;2023-02-18T00:51:06;86231.84;;;11.97;100.00
3590;BME280;1809;48.470;9.226;2023-02-18T00:53:32;86906.69;;;11.90;100.00
3590;BME280;1809;48.470;9.226;2023-02-18T00:58:28;88969.78;;;11.97;100.00
3590;BME280;1809;48.470;9.226;2023-02-18T01:00:54;88280.94;;;11.94;100.00
3590;BME280;1809;48.470;9.226;2023-02-18T01:03:19;89300.41;;;11.89;100.00
3590;BME280;1809;48.470;9.226;2023-02-18T01:05:46;89975.44;;;11.82;100.00
3590;BME280;1809;48.470;9.226;2023-02-18T01:08:12;92373.91;;;11.83;100.00
3590;BME280;1809;48.470;9.226;2023-02-18T01:10:41;91006.22;;;11.85;100.00
3590;BME280;1809;48.470;9.226;2023-02-18T01:13:08;92022.31;;;11.77;100.00
3590;BME280;1809;48.470;9.226;2023-02-18T01:15:33;92362.56;;;11.76;100.00
3590;BME280;1809;48.470;9.226;2023-02-18T01:17:58;89625.78;;;11.77;100.00
3590;BME280;1809;48.470;9.226;2023-02-18T01:20:24;87224.53;;;11.73;100.00
3590;BME280;1809;48.470;9.226;2023-02-18T01:22:49;85851.22;;;11.69;100.00
3590;BME280;1809;48.470;9.226;2023-02-18T01:25:15;82448.19;;;11.79;100.00
3590;BME280;1809;48.470;9.226;2023-02-18T01:27:40;79373.09;;;11.77;100.00
3590;BME280;1809;48.470;9.226;2023-02-18T01:30:08;77669.31;;;11.78;100.00
3590;BME280;1809;48.470;9.226;2023-02-18T01:32:33;74950.44;;;11.85;100.00
3590;BME280;1809;48.470;9.226;2023-02-18T01:35:00;71896.03;;;11.96;100.00
3590;BME280;1809;48.470;9.226;2023-02-18T01:37:26;69509.38;;;11.93;100.00
3590;BME280;1809;48.470;9.226;2023-02-18T01:39:51;69838.38;;;11.82;100.00
3590;BME280;1809;48.470;9.226;2023-02-18T01:42:23;72227.22;;;11.88;100.00
3590;BME280;1809;48.470;9.226;2023-02-18T01:44:49;71542.06;;;11.84;100.00
3590;BME280;1809;48.470;9.226;2023-02-18T01:47:15;73253.88;;;11.92;100.00
3590;BME280;1809;48.470;9.226;2023-02-18T01:49:41;73591.00;;;11.89;100.00
3590;BME280;1809;48.470;9.226;2023-02-18T01:52:23;73593.38;;;11.91;100.00
3590;BME280;1809;48.470;9.226;2023-02-18T01:54:53;71541.47;;;11.83;100.00
3590;BME280;1809;48.470;9.226;2023-02-18T01:57:23;70520.75;;;11.84;100.00
3590;BME280;1809;48.470;9.226;2023-02-18T01:59:59;65772.09;;;11.97;100.00
3590;BME280;1809;48.470;9.226;2023-02-18T02:02:29;64410.34;;;11.95;100.00
3590;BME280;1809;48.470;9.226;2023-02-18T02:04:56;61689.78;;;11.92;100.00
3590;BME280;1809;48.470;9.226;2023-02-18T02:07:23;61007.78;;;11.89;100.00
3590;BME280;1809;48.470;9.226;2023-02-18T02:09:51;60669.81;;;11.90;100.00
3590;BME280;1809;48.470;9.226;2023-02-18T02:23:12;69463.56;;;11.52;100.00
3590;BME280;1809;48.470;9.226;2023-02-18T02:43:28;75226.22;;;11.32;100.00
3590;BME280;1809;48.470;9.226;2023-02-18T02:45:42;77934.00;;;11.18;100.00
3590;BME280;1809;48.470;9.226;2023-02-18T02:53:24;87142.44;;;11.15;100.00
3590;BME280;1809;48.470;9.226;2023-02-18T02:55:51;87480.53;;;11.12;100.00
3590;BME280;1809;48.470;9.226;2023-02-18T02:58:18;86465.59;;;11.19;100.00
3590;BME280;1809;48.470;9.226;2023-02-18T03:03:41;82388.22;;;11.34;100.00
3590;BME280;1809;48.470;9.226;2023-02-18T03:06:37;78639.97;;;11.37;100.00
3590;BME280;1809;48.470;9.226;2023-02-18T03:09:14;74214.97;;;11.41;100.00
3590;BME280;1809;48.470;9.226;2023-02-18T03:14:28;66408.88;;;11.56;100.00
3590;BME280;1809;48.470;9.226;2023-02-18T03:17:10;61655.72;;;11.57;100.00
3590;BME280;1809;48.470;9.226;2023-02-18T03:19:44;60977.06;;;11.57;100.00
3590;BME280;1809;48.470;9.226;2023-02-18T03:22:12;56228.13;;;11.55;100.00
3590;BME280;1809;48.470;9.226;2023-02-18T03:24:41;51829.13;;;11.58;100.00
3590;BME280;1809;48.470;9.226;2023-02-18T03:27:19;50142.13;;;11.63;100.00
3590;BME280;1809;48.470;9.226;2023-02-18T03:29:51;49802.31;;;11.61;100.00
3590;BME280;1809;48.470;9.226;2023-02-18T03:32:21;49131.53;;;11.68;100.00
3590;BME280;1809;48.470;9.226;2023-02-18T03:34:51;47769.91;;;11.56;100.00
3590;BME280;1809;48.470;9.226;2023-02-18T03:37:21;48776.47;;;11.47;100.00
3590;BME280;1809;48.470;9.226;2023-02-18T03:39:51;51483.69;;;11.49;100.00
3590;BME280;1809;48.470;9.226;2023-02-18T03:42:24;54523.06;;;11.42;100.00
3590;BME280;1809;48.470;9.226;2023-02-18T03:44:50;56885.03;;;11.32;100.00
3590;BME280;1809;48.470;9.226;2023-02-18T03:47:16;60947.84;;;11.27;100.00
3590;BME280;1809;48.470;9.226;2023-02-18T03:49:41;63990.38;;;11.17;100.00
3590;BME280;1809;48.470;9.226;2023-02-18T03:52:06;67729.31;;;11.20;100.00
3590;BME280;1809;48.470;9.226;2023-02-18T03:54:32;69079.59;;;11.12;100.00
3590;BME280;1809;48.470;9.226;2023-02-18T03:56:57;72132.50;;;11.06;100.00
3590;BME280;1809;48.470;9.226;2023-02-18T03:59:22;74174.44;;;11.07;100.00
3590;BME280;1809;48.470;9.226;2023-02-18T04:01:48;75193.09;;;11.05;100.00
3590;BME280;1809;48.470;9.226;2023-02-18T04:04:13;76207.63;;;10.99;100.00
3590;BME280;1809;48.470;9.226;2023-02-18T04:06:38;77557.19;;;10.89;100.00
3590;BME280;1809;48.470;9.226;2023-02-18T04:09:03;77892.00;;;10.85;100.00
3590;BME280;1809;48.470;9.226;2023-02-18T04:11:36;80955.88;;;10.83;100.00
3590;BME280;1809;48.470;9.226;2023-02-18T04:14:03;81300.06;;;10.85;100.00
3590;BME280;1809;48.470;9.226;2023-02-18T04:16:28;82978.53;;;10.65;100.00
3590;BME280;1809;48.470;9.226;2023-02-18T04:18:53;84694.91;;;10.73;100.00
3590;BME280;1809;48.470;9.226;2023-02-18T04:21:19;83676.97;;;10.77;100.00
3590;BME280;1809;48.470;9.226;2023-02-18T04:23:44;81642.97;;;10.87;100.00
3590;BME280;1809;48.470;9.226;2023-02-18T04:26:09;77213.47;;;10.87;100.00
3590;BME280;1809;48.470;9.226;2023-02-18T04:28:35;73133.34;;;10.90;100.00
3590;BME280;1809;48.470;9.226;2023-02-18T04:31:00;71095.53;;;10.92;100.00
3590;BME280;1809;48.470;9.226;2023-02-18T04:33:25;70078.16;;;10.94;100.00
3590;BME280;1809;48.470;9.226;2023-02-18T04:35:51;69732.06;;;10.88;100.00
3590;BME280;1809;48.470;9.226;2023-02-18T04:38:16;72106.63;;;10.84;100.00
3590;BME280;1809;48.470;9.226;2023-02-18T04:40:41;74139.34;;;10.77;100.00
3590;BME280;1809;48.470;9.226;2023-02-18T04:43:07;78552.69;;;10.68;100.00
3590;BME280;1809;48.470;9.226;2023-02-18T04:45:32;81958.50;;;10.67;100.00
3590;BME280;1809;48.470;9.226;2023-02-18T04:47:57;84337.84;;;10.62;100.00
3590;BME280;1809;48.470;9.226;2023-02-18T04:50:22;87069.72;;;10.63;100.00
3590;BME280;1809;48.470;9.226;2023-02-18T04:52:48;87748.22;;;10.60;100.00
3590;BME280;1809;48.470;9.226;2023-02-18T04:55:14;88102.63;;;10.69;100.00
3590;BME280;1809;48.470;9.226;2023-02-18T04:57:39;87426.16;;;10.74;100.00
3590;BME280;1809;48.470;9.226;2023-02-18T05:00:07;86059.91;;;10.73;100.00
3590;BME280;1809;48.470;9.226;2023-02-18T05:02:33;83682.44;;;10.82;100.00
3590;BME280;1809;48.470;9.226;2023-02-18T05:04:58;82993.50;;;10.76;100.00
3590;BME280;1809;48.470;9.226;2023-02-18T05:07:23;84344.06;;;10.66;100.00
3590;BME280;1809;48.470;9.226;2023-02-18T05:09:49;84685.88;;;10.67;100.00
3590;BME280;1809;48.470;9.226;2023-02-18T05:12:14;84355.09;;;10.74;100.00
3590;BME280;1809;48.470;9.226;2023-02-18T05:14:39;82322.25;;;10.85;100.00
3590;BME280;1809;48.470;9.226;2023-02-18T05:17:05;80961.13;;;10.87;100.00
3590;BME280;1809;48.470;9.226;2023-02-18T05:19:30;80280.75;;;10.88;100.00
3590;BME280;1809;48.470;9.226;2023-02-18T05:21:55;79616.09;;;11.01;100.00
3590;BME280;1809;48.470;9.226;2023-02-18T05:24:21;78945.47;;;11.09;100.00
3590;BME280;1809;48.470;9.226;2023-02-18T05:26:46;75205.34;;;11.15;100.00
3590;BME280;1809;48.470;9.226;2023-02-18T05:29:11;70113.56;;;11.25;100.00
3590;BME280;1809;48.470;9.226;2023-02-18T05:31:37;66035.22;;;11.24;100.00
3590;BME280;1809;48.470;9.226;2023-02-18T05:34:03;63669.66;;;11.35;100.00
3590;BME280;1809;48.470;9.226;2023-02-18T05:36:28;60269.22;;;11.27;100.00
3590;BME280;1809;48.470;9.226;2023-02-18T05:38:56;59929.22;;;11.26;100.00
3590;BME280;1809;48.470;9.226;2023-02-18T05:41:21;58581.50;;;11.34;100.00
3590;BME280;1809;48.470;9.226;2023-02-18T05:43:47;53167.38;;;11.40;100.00
3590;BME280;1809;48.470;9.226;2023-02-18T05:46:35;48777.25;;;11.48;100.00
3590;BME280;1809;48.470;9.226;2023-02-18T05:49:00;41689.44;;;11.52;100.00
3590;BME280;1809;48.470;9.226;2023-02-18T05:51:26;39662.91;;;11.47;100.00
3590;BME280;1809;48.470;9.226;2023-02-18T05:53:51;38991.91;;;11.52;100.00
3590;BME280;1809;48.470;9.226;2023-02-18T05:56:16;35963.22;;;11.58;100.00
3590;BME280;1809;48.470;9.226;2023-02-18T05:58:42;33948.00;;;11.67;100.00
3590;BME280;1809;48.470;9.226;2023-02-18T06:01:07;30245.66;;;11.64;100.00
3590;BME280;1809;48.470;9.226;2023-02-18T06:03:32;30919.19;;;11.66;100.00
3590;BME280;1809;48.470;9.226;2023-02-18T06:05:58;30252.16;;;11.78;100.00
3590;BME280;1809;48.470;9.226;2023-02-18T06:08:23;28571.00;;;11.78;100.00
3590;BME280;1809;48.470;9.226;2023-02-18T06:10:48;30249.50;;;11.72;100.00
3590;BME280;1809;48.470;9.226;2023-02-18T06:13:14;32941.44;;;11.73;100.00
3590;BME280;1809;48.470;9.226;2023-02-18T06:15:39;35299.91;;;11.76;100.00
3590;BME280;1809;48.470;9.226;2023-02-18T06:18:05;36648.31;;;11.78;100.00
3590;BME280;1809;48.470;9.226;2023-02-18T06:20:31;36985.59;;;11.78;100.00
3590;BME280;1809;48.470;9.226;2023-02-18T06:22:56;40693.34;;;11.76;100.00
3590;BME280;1809;48.470;9.226;2023-02-18T06:25:22;42040.69;;;11.73;100.00
3590;BME280;1809;48.470;9.226;2023-02-18T06:27:47;43051.19;;;11.70;100.00
3590;BME280;1809;48.470;9.226;2023-02-18T06:30:12;44406.34;;;11.76;100.00
3590;BME280;1809;48.470;9.226;2023-02-18T06:32:38;45752.38;;;11.69;100.00
3590;BME280;1809;48.470;9.226;2023-02-18T06:35:03;48460.00;;;11.74;100.00
3590;BME280;1809;48.470;9.226;2023-02-18T06:37:29;46767.16;;;11.71;100.00
3590;BME280;1809;48.470;9.226;2023-02-18T06:39:54;44404.91;;;11.74;100.00
3590;BME280;1809;48.470;9.226;2023-02-18T06:42:19;44741.94;;;11.73;100.00
3590;BME280;1809;48.470;9.226;2023-02-18T06:44:45;44743.38;;;11.75;100.00
3590;BME280;1809;48.470;9.226;2023-02-18T06:47:10;44409.19;;;11.80;100.00
3590;BME280;1809;48.470;9.226;2023-02-18T06:49:35;44410.28;;;11.82;100.00
3590;BME280;1809;48.470;9.226;2023-02-18T06:52:03;42389.41;;;11.90;100.00
3590;BME280;1809;48.470;9.226;2023-02-18T06:54:29;42724.97;;;11.86;100.00
3590;BME280;1809;48.470;9.226;2023-02-18T06:56:54;43736.22;;;11.84;100.00
3590;BME280;1809;48.470;9.226;2023-02-18T06:59:20;45762.69;;;11.83;100.00
3590;BME280;1809;48.470;9.226;2023-02-18T07:01:45;43743.63;;;11.95;100.00
3590;BME280;1809;48.470;9.226;2023-02-18T07:04:10;39360.91;;;12.03;100.00
3590;BME280;1809;48.470;9.226;2023-02-18T07:06:36;38347.72;;;12.01;100.00
3590;BME280;1809;48.470;9.226;2023-02-18T07:09:01;39020.72;;;11.99;100.00
3590;BME280;1809;48.470;9.226;2023-02-18T07:11:27;41043.91;;;11.97;100.00
3590;BME280;1809;48.470;9.226;2023-02-18T07:13:52;40707.41;;;11.98;100.00
3590;BME280;1809;48.470;9.226;2023-02-18T07:16:17;41725.38;;;12.06;100.00
3590;BME280;1809;48.470;9.226;2023-02-18T07:18:43;38353.56;;;12.11;100.00
3590;BME280;1809;48.470;9.226;2023-02-18T07:21:08;28591.25;;;12.23;100.00
3590;BME280;1809;48.470;9.226;2023-02-18T07:23:33;27243.78;;;12.18;100.00
3590;BME280;1809;48.470;9.226;2023-02-18T07:26:07;23548.03;;;12.20;100.00
3590;BME280;1809;48.470;9.226;2023-02-18T07:28:33;18512.94;;;12.17;100.00
3590;BME280;1809;48.470;9.226;2023-02-18T07:30:59;16170.13;;;12.32;100.00
3590;BME280;1809;48.470;9.226;2023-02-18T07:33:24;18514.38;;;12.22;100.00
3590;BME280;1809;48.470;9.226;2023-02-18T07:35:54;10811.09;;;12.30;100.00
3590;BME280;1809;48.470;9.226;2023-02-18T07:38:20;2455.88;;;12.32;100.00
3590;BME280;1809;48.470;9.226;2023-02-18T07:40:46;5795.56;;;12.32;100.00
3590;BME280;1809;48.470;9.226;2023-02-18T07:43:11;-4268.16;;;12.34;100.00
3590;BME280;1809;48.470;9.226;2023-02-18T07:45:37;-4515.09;;;12.31;100.00
3590;BME280;1809;48.470;9.226;2023-02-18T07:48:03;-10371.66;;;12.40;100.00
3590;BME280;1809;48.470;9.226;2023-02-18T07:50:28;-15102.94;;;12.45;100.00
3590;BME280;1809;48.470;9.226;2023-02-18T07:52:59;-15200.75;;;12.42;100.00
3590;BME280;1809;48.470;9.226;2023-02-18T07:55:24;-16517.03;;;12.49;100.00
3590;BME280;1809;48.470;9.226;2023-02-18T07:58:10;-16516.88;;;12.49;100.00
3590;BME280;1809;48.470;9.226;2023-02-18T08:00:36;-16521.25;;;12.64;100.00
3590;BME280;1809;48.470;9.226;2023-02-18T08:03:01;-16528.25;;;12.89;100.00
3590;BME280;1809;48.470;9.226;2023-02-18T08:05:27;-16529.38;;;12.93;100.00
3590;BME280;1809;48.470;9.226;2023-02-18T08:07:52;-16528.53;;;12.90;100.00
3590;BME280;1809;48.470;9.226;2023-02-18T08:10:18;-16530.22;;;12.97;100.00
3590;BME280;1809;48.470;9.226;2023-02-18T08:12:43;-16527.69;;;12.87;100.00
3590;BME280;1809;48.470;9.226;2023-02-18T08:15:08;-16528.25;;;12.89;100.00
3590;BME280;1809;48.470;9.226;2023-02-18T08:17:34;-16528.69;;;12.91;100.00
3590;BME280;1809;48.470;9.226;2023-02-18T08:19:59;-16531.75;;;13.02;100.00
3590;BME280;1809;48.470;9.226;2023-02-18T08:22:24;-16530.78;;;12.99;100.00
3590;BME280;1809;48.470;9.226;2023-02-18T08:24:50;-16534.16;;;13.11;100.00
3590;BME280;1809;48.470;9.226;2023-02-18T08:27:17;-16531.34;;;13.01;100.00
3590;BME280;1809;48.470;9.226;2023-02-18T08:29:43;-16530.91;;;12.99;100.00
3590;BME280;1809;48.470;9.226;2023-02-18T08:32:08;-16530.66;;;12.98;100.00
3590;BME280;1809;48.470;9.226;2023-02-18T08:34:33;-16531.63;;;13.02;100.00
3590;BME280;1809;48.470;9.226;2023-02-18T08:37:00;-16530.22;;;12.97;100.00
3590;BME280;1809;48.470;9.226;2023-02-18T08:39:26;-16529.38;;;12.93;100.00
3590;BME280;1809;48.470;9.226;2023-02-18T08:41:51;-16528.13;;;12.89;100.00
3590;BME280;1809;48.470;9.226;2023-02-18T08:44:16;-16530.78;;;12.99;100.00
3590;BME280;1809;48.470;9.226;2023-02-18T08:46:42;-16533.88;;;13.10;100.00
3590;BME280;1809;48.470;9.226;2023-02-18T08:49:07;-16533.59;;;13.09;100.00
3590;BME280;1809;48.470;9.226;2023-02-18T08:51:33;-16530.09;;;12.96;100.00
3590;BME280;1809;48.470;9.226;2023-02-18T08:53:58;-16531.19;;;13.00;100.00
3590;BME280;1809;48.470;9.226;2023-02-18T08:56:23;-16533.88;;;13.10;100.00
3590;BME280;1809;48.470;9.226;2023-02-18T08:58:49;-16532.31;;;13.04;100.00
3590;BME280;1809;48.470;9.226;2023-02-18T09:01:14;-16532.75;;;13.06;100.00
3590;BME280;1809;48.470;9.226;2023-02-18T09:03:39;-16531.06;;;13.00;100.00
3590;BME280;1809;48.470;9.226;2023-02-18T09:06:05;-16531.91;;;13.03;100.00
3590;BME280;1809;48.470;9.226;2023-02-18T09:08:31;-16531.06;;;13.00;100.00
3590;BME280;1809;48.470;9.226;2023-02-18T09:10:57;-16535.28;;;13.15;100.00
3590;BME280;1809;48.470;9.226;2023-02-18T09:13:24;-16533.72;;;13.09;100.00
3590;BME280;1809;48.470;9.226;2023-02-18T09:16:16;-16533.88;;;13.10;100.00
3590;BME280;1809;48.470;9.226;2023-02-18T09:18:43;-16534.28;;;13.11;100.00
3590;BME280;1809;48.470;9.226;2023-02-18T09:21:11;-16535.56;;;13.16;100.00
3590;BME280;1809;48.470;9.226;2023-02-18T09:23:37;-16535.28;;;13.15;100.00
3590;BME280;1809;48.470;9.226;2023-02-18T09:26:04;-16535.00;;;13.14;100.00
3590;BME280;1809;48.470;9.226;2023-02-18T09:28:30;-16535.84;;;13.17;100.00
3590;BME280;1809;48.470;9.226;2023-02-18T09:30:56;-16533.88;;;13.10;100.00
3590;BME280;1809;48.470;9.226;2023-02-18T09:33:21;-16534.00;;;13.10;100.00
3590;BME280;1809;48.470;9.226;2023-02-18T09:35:46;-16533.16;;;13.07;100.00
3590;BME280;1809;48.470;9.226;2023-02-18T09:38:15;-16534.56;;;13.12;100.00
3590;BME280;1809;48.470;9.226;2023-02-18T09:40:49;-16537.25;;;13.22;100.00
3590;BME280;1809;48.470;9.226;2023-02-18T09:43:22;-16541.03;;;13.35;100.00
3590;BME280;1809;48.470;9.226;2023-02-18T09:45:52;-16540.88;;;13.35;100.00
3590;BME280;1809;48.470;9.226;2023-02-18T09:48:20;-16545.09;;;13.50;100.00
3590;BME280;1809;48.470;9.226;2023-02-18T09:50:51;-16547.47;;;13.59;100.00
3590;BME280;1809;48.470;9.226;2023-02-18T09:53:16;-16550.44;;;13.69;100.00
3590;BME280;1809;48.470;9.226;2023-02-18T09:55:43;-16550.69;;;13.70;100.00
3590;BME280;1809;48.470;9.226;2023-02-18T09:58:18;-16553.50;;;13.80;100.00
3590;BME280;1809;48.470;9.226;2023-02-18T10:00:48;-16553.78;;;13.81;100.00
3590;BME280;1809;48.470;9.226;2023-02-18T10:03:20;-16552.09;;;13.75;100.00
3590;BME280;1809;48.470;9.226;2023-02-18T10:06:15;-16552.09;;;13.75;100.00
3590;BME280;1809;48.470;9.226;2023-02-18T10:08:45;-16553.22;;;13.79;100.00
3590;BME280;1809;48.470;9.226;2023-02-18T10:13:48;-16555.19;;;13.86;100.00
3590;BME280;1809;48.470;9.226;2023-02-18T10:16:17;-16560.25;;;14.05;100.00
3590;BME280;1809;48.470;9.226;2023-02-18T10:18:48;-16563.03;;;14.15;100.00
3590;BME280;1809;48.470;9.226;2023-02-18T10:21:18;-16561.91;;;14.11;100.00
3590;BME280;1809;48.470;9.226;2023-02-18T10:24:04;-16561.91;;;14.11;100.00
3590;BME280;1809;48.470;9.226;2023-02-18T10:26:33;-16558.84;;;13.99;100.00
3590;BME280;1809;48.470;9.226;2023-02-18T10:28:59;-16558.28;;;13.97;100.00
3590;BME280;1809;48.470;9.226;2023-02-18T10:31:32;-16558.28;;;13.97;100.00
3590;BME280;1809;48.470;9.226;2023-02-18T10:36:46;-16562.75;;;14.14;100.00
3590;BME280;1809;48.470;9.226;2023-02-18T10:49:59;-16559.41;;;14.01;100.00
3590;BME280;1809;48.470;9.226;2023-02-18T10:52:45;-16560.38;;;14.05;100.00
3590;BME280;1809;48.470;9.226;2023-02-18T10:55:13;-16561.91;;;14.11;100.00
3590;BME280;1809;48.470;9.226;2023-02-18T10:57:53;-16562.63;;;14.13;100.00
3590;BME280;1809;48.470;9.226;2023-02-18T11:00:24;-16557.44;;;13.94;100.00
3590;BME280;1809;48.470;9.226;2023-02-18T11:03:15;-16553.22;;;13.79;100.00
3590;BME280;1809;48.470;9.226;2023-02-18T11:05:41;-16554.78;;;13.85;100.00
3590;BME280;1809;48.470;9.226;2023-02-18T11:08:20;-16550.56;;;13.70;100.00
3590;BME280;1809;48.470;9.226;2023-02-18T11:10:47;-16549.31;;;13.65;100.00
3590;BME280;1809;48.470;9.226;2023-02-18T11:13:15;-16547.34;;;13.58;100.00
3590;BME280;1809;48.470;9.226;2023-02-18T11:16:13;-16548.19;;;13.61;100.00
3590;BME280;1809;48.470;9.226;2023-02-18T11:18:43;-16551.13;;;13.72;100.00
3590;BME280;1809;48.470;9.226;2023-02-18T11:21:28;-16552.66;;;13.77;100.00
3590;BME280;1809;48.470;9.226;2023-02-18T11:23:55;-16551.28;;;13.72;100.00
3590;BME280;1809;48.470;9.226;2023-02-18T11:26:31;-16554.91;;;13.85;100.00
3590;BME280;1809;48.470;9.226;2023-02-18T11:29:05;-16553.22;;;13.79;100.00
3590;BME280;1809;48.470;9.226;2023-02-18T11:31:39;-16559.41;;;14.01;100.00
3590;BME280;1809;48.470;9.226;2023-02-18T11:34:05;-16559.69;;;14.02;100.00
3590;BME280;1809;48.470;9.226;2023-02-18T11:36:38;-16555.91;;;13.89;100.00
3590;BME280;1809;48.470;9.226;2023-02-18T11:39:25;-16552.66;;;13.77;100.00
3590;BME280;1809;48.470;9.226;2023-02-18T11:42:00;-16554.91;;;13.85;100.00
3590;BME280;1809;48.470;9.226;2023-02-18T11:44:36;-16553.94;;;13.82;100.00
3590;BME280;1809;48.470;9.226;2023-02-18T11:49:37;-16552.25;;;13.76;100.00
3590;BME280;1809;48.470;9.226;2023-02-18T11:52:18;-16547.63;;;13.59;100.00
3590;BME280;1809;48.470;9.226;2023-02-18T11:57:27;-16549.03;;;13.64;100.00
3590;BME280;1809;48.470;9.226;2023-02-18T11:59:53;-16552.09;;;13.75;100.00
3590;BME280;1809;48.470;9.226;2023-02-18T12:02:33;-16553.66;;;13.81;100.00
3590;BME280;1809;48.470;9.226;2023-02-18T12:05:28;-16550.69;;;13.70;100.00
3590;BME280;1809;48.470;9.226;2023-02-18T12:08:06;-16546.91;;;13.57;100.00
3590;BME280;1809;48.470;9.226;2023-02-18T12:10:46;-16546.78;;;13.56;100.00
3590;BME280;1809;48.470;9.226;2023-02-18T12:13:29;-16550.16;;;13.68;100.00
3590;BME280;1809;48.470;9.226;2023-02-18T12:21:37;-16546.50;;;13.55;100.00
3590;BME280;1809;48.470;9.226;2023-02-18T12:27:11;-16546.50;;;13.55;100.00
3590;BME280;1809;48.470;9.226;2023-02-18T12:38:19;-16550.16;;;13.68;100.00
3590;BME280;1809;48.470;9.226;2023-02-18T12:43:31;-16548.19;;;13.61;100.00
3590;BME280;1809;48.470;9.226;2023-02-18T12:46:36;-16549.16;;;13.65;100.00
3590;BME280;1809;48.470;9.226;2023-02-18T12:54:50;-16558.00;;;13.96;100.00
3590;BME280;1809;48.470;9.226;2023-02-18T12:57:23;-16552.09;;;13.75;100.00
3590;BME280;1809;48.470;9.226;2023-02-18T13:05:56;-16556.59;;;13.91;100.00
3590;BME280;1809;48.470;9.226;2023-02-18T13:11:18;-16552.53;;;13.77;100.00
3590;BME280;1809;48.470;9.226;2023-02-18T13:13:57;-16551.81;;;13.74;100.00
3590;BME280;1809;48.470;9.226;2023-02-18T13:16:25;-16553.09;;;13.79;100.00
3590;BME280;1809;48.470;9.226;2023-02-18T13:21:17;-16554.22;;;13.83;100.00
3590;BME280;1809;48.470;9.226;2023-02-18T13:23:55;-16557.72;;;13.95;100.00
3590;BME280;1809;48.470;9.226;2023-02-18T13:26:22;-16555.75;;;13.88;100.00
3590;BME280;1809;48.470;9.226;2023-02-18T13:28:55;-16557.16;;;13.93;100.00
3590;BME280;1809;48.470;9.226;2023-02-18T13:34:23;-16556.31;;;13.90;100.00
3590;BME280;1809;48.470;9.226;2023-02-18T13:37:01;-16556.31;;;13.90;100.00
3590;BME280;1809;48.470;9.226;2023-02-18T13:39:28;-16551.69;;;13.74;100.00
3590;BME280;1809;48.470;9.226;2023-02-18T13:42:11;-16551.00;;;13.71;100.00
3590;BME280;1809;48.470;9.226;2023-02-18T13:47:44;-16554.63;;;13.84;100.00
3590;BME280;1809;48.470;9.226;2023-02-18T13:50:22;-16555.19;;;13.86;100.00
3590;BME280;1809;48.470;9.226;2023-02-18T13:58:04;-16556.31;;;13.90;100.00
3590;BME280;1809;48.470;9.226;2023-02-18T14:00:39;-16557.16;;;13.93;100.00
3590;BME280;1809;48.470;9.226;2023-02-18T14:06:24;-16556.03;;;13.89;100.00
3590;BME280;1809;48.470;9.226;2023-02-18T14:08:50;-16558.13;;;13.97;100.00
3590;BME280;1809;48.470;9.226;2023-02-18T14:13:55;-16558.84;;;13.99;100.00
3590;BME280;1809;48.470;9.226;2023-02-18T14:19:40;-16551.00;;;13.71;100.00
3590;BME280;1809;48.470;9.226;2023-02-18T14:22:31;-16551.13;;;13.72;100.00
3590;BME280;1809;48.470;9.226;2023-02-18T14:27:50;-16550.69;;;13.70;100.00
3590;BME280;1809;48.470;9.226;2023-02-18T14:32:50;-16549.31;;;13.65;100.00
3590;BME280;1809;48.470;9.226;2023-02-18T14:40:55;-16549.59;;;13.66;100.00
3590;BME280;1809;48.470;9.226;2023-02-18T14:49:07;-16550.56;;;13.70;100.00
3590;BME280;1809;48.470;9.226;2023-02-18T14:51:35;-16549.88;;;13.67;100.00
3590;BME280;1809;48.470;9.226;2023-02-18T14:54:03;-16550.44;;;13.69;100.00
3590;BME280;1809;48.470;9.226;2023-02-18T14:56:31;-16550.00;;;13.68;100.00
3590;BME280;1809;48.470;9.226;2023-02-18T14:59:02;-16552.66;;;13.77;100.00
3590;BME280;1809;48.470;9.226;2023-02-18T15:01:31;-16552.66;;;13.77;100.00
3590;BME280;1809;48.470;9.226;2023-02-18T15:03:57;-16553.50;;;13.80;100.00
3590;BME280;1809;48.470;9.226;2023-02-18T15:06:34;-16551.00;;;13.71;100.00
3590;BME280;1809;48.470;9.226;2023-02-18T15:09:43;-16551.81;;;13.74;100.00
3590;BME280;1809;48.470;9.226;2023-02-18T15:12:02;-16553.09;;;13.79;100.00
3590;BME280;1809;48.470;9.226;2023-02-18T15:14:32;-16553.50;;;13.80;100.00
3590;BME280;1809;48.470;9.226;2023-02-18T15:16:59;-16554.50;;;13.84;100.00
3590;BME280;1809;48.470;9.226;2023-02-18T15:19:29;-16555.47;;;13.87;100.00
3590;BME280;1809;48.470;9.226;2023-02-18T15:21:58;-16555.91;;;13.89;100.00
3590;BME280;1809;48.470;9.226;2023-02-18T15:24:24;-16557.72;;;13.95;100.00
3590;BME280;1809;48.470;9.226;2023-02-18T15:26:51;-16557.00;;;13.93;100.00
3590;BME280;1809;48.470;9.226;2023-02-18T15:29:25;-16556.31;;;13.90;100.00
3590;BME280;1809;48.470;9.226;2023-02-18T15:31:54;-16555.19;;;13.86;100.00